Terminal Aerodrome Forecast
Issued by NWS

Current Version | Previous Version | Text Only | Print | Product List | Glossary Off
Versions: 1 2 3 4 5 6 7 8 9 10 11 12 13 14 15 16 17

633
FTUS41 KILN 290527
TAFLUK
TAF
KLUK 290527Z 2906/3006 VRB03KT P6SM BKN250
     FM290900 VRB04KT P6SM BKN250 WS020/22035KT
     FM291300 20008KT P6SM BKN250
     FM291600 21012G20KT P6SM SCT040 SCT250
     FM292300 21008KT P6SM FEW050 BKN250=

USA.gov is the U.S. government's official web portal to all federal, state and local government web resources and services.